createdAt,value
2023-12-01T00:01:57.810Z,95.34
2023-12-01T00:04:24.524Z,95.04
2023-12-01T00:06:51.417Z,94.93
2023-12-01T00:09:18.046Z,94.88
2023-12-01T00:11:44.649Z,94.88
2023-12-01T00:14:11.413Z,94.79
2023-12-01T00:16:38.013Z,94.75
2023-12-01T00:19:04.997Z,94.68
2023-12-01T00:21:31.527Z,94.79
2023-12-01T00:23:58.296Z,94.79
2023-12-01T00:26:24.959Z,94.99
2023-12-01T00:28:57.331Z,94.96
2023-12-01T00:31:24.181Z,94.93
2023-12-01T00:33:52.554Z,94.51
2023-12-01T00:36:19.147Z,94.82
2023-12-01T00:38:45.780Z,94.57
2023-12-01T00:41:12.542Z,94.42
2023-12-01T00:43:39.197Z,94.45
2023-12-01T00:46:06.032Z,94.23
2023-12-01T00:48:32.673Z,94.15
2023-12-01T00:50:59.192Z,93.74
2023-12-01T00:53:25.696Z,94.03
2023-12-01T00:55:52.833Z,94.09
2023-12-01T00:58:19.462Z,94.24
2023-12-01T01:00:46.134Z,93.97
2023-12-01T01:03:12.743Z,93.86
2023-12-01T01:05:39.425Z,93.78
2023-12-01T01:08:06.059Z,94.05
2023-12-01T01:10:32.905Z,93.92
2023-12-01T01:12:59.525Z,93.84
2023-12-01T01:15:26.054Z,93.78
2023-12-01T01:17:52.727Z,93.78
2023-12-01T01:20:19.395Z,93.79
2023-12-01T01:22:46.072Z,93.50
2023-12-01T01:25:12.671Z,93.28
2023-12-01T01:27:39.296Z,93.51
2023-12-01T01:30:06.599Z,93.55
2023-12-01T01:32:33.214Z,93.65
2023-12-01T01:34:59.679Z,93.34
2023-12-01T01:37:26.136Z,93.55
2023-12-01T01:39:52.720Z,93.89
2023-12-01T01:42:19.327Z,93.43
2023-12-01T01:44:45.944Z,93.39
2023-12-01T01:47:12.455Z,93.64
2023-12-01T01:49:39.328Z,93.83
2023-12-01T01:52:06.295Z,94.00
2023-12-01T01:54:33.312Z,94.22
2023-12-01T01:57:00.022Z,94.27
2023-12-01T01:59:26.553Z,94.13
2023-12-01T02:01:53.366Z,94.38
2023-12-01T02:04:20.391Z,94.24
2023-12-01T02:06:47.457Z,94.03
2023-12-01T02:09:14.577Z,94.33
2023-12-01T02:11:41.599Z,94.40
2023-12-01T02:14:08.207Z,94.22
2023-12-01T02:16:34.918Z,94.24
2023-12-01T02:19:01.559Z,94.05
2023-12-01T02:21:28.668Z,94.22
2023-12-01T02:23:56.634Z,94.28
2023-12-01T02:26:23.969Z,94.44
2023-12-01T02:28:50.677Z,94.51
2023-12-01T02:31:18.765Z,94.28
2023-12-01T02:33:45.310Z,94.46
2023-12-01T02:36:14.212Z,94.49
2023-12-01T02:38:40.778Z,94.59
2023-12-01T02:41:07.642Z,94.52
2023-12-01T02:43:39.105Z,94.88
2023-12-01T02:46:05.852Z,94.90
2023-12-01T02:48:34.011Z,94.84
2023-12-01T02:51:00.564Z,94.79
2023-12-01T02:53:27.017Z,94.81
2023-12-01T02:55:53.486Z,94.55
2023-12-01T02:58:20.156Z,94.42
2023-12-01T03:00:46.969Z,94.46
2023-12-01T03:03:13.628Z,95.08
2023-12-01T03:05:40.744Z,95.07
2023-12-01T03:08:07.559Z,94.94
2023-12-01T03:10:35.436Z,95.25
2023-12-01T03:13:02.216Z,94.81
2023-12-01T03:15:30.351Z,94.81
2023-12-01T03:17:56.963Z,94.88
2023-12-01T03:20:23.581Z,94.29
2023-12-01T03:22:53.006Z,94.52
2023-12-01T03:25:19.620Z,94.09
2023-12-01T03:27:48.898Z,94.21
2023-12-01T03:30:16.314Z,94.43
2023-12-01T03:32:50.977Z,93.78
2023-12-01T03:35:22.372Z,93.81
2023-12-01T03:37:50.386Z,93.64
2023-12-01T03:40:17.183Z,93.59
2023-12-01T03:42:49.044Z,93.73
2023-12-01T03:45:16.470Z,92.93
2023-12-01T03:47:47.369Z,93.04
2023-12-01T03:50:14.748Z,93.23
2023-12-01T03:52:43.070Z,93.31
2023-12-01T03:55:10.933Z,93.60
2023-12-01T03:57:38.625Z,93.18
2023-12-01T04:00:14.374Z,93.02
2023-12-01T04:02:42.669Z,93.57
2023-12-01T04:05:10.329Z,93.25
2023-12-01T04:07:37.220Z,93.29
2023-12-01T04:10:11.597Z,93.23
2023-12-01T04:12:45.939Z,92.84
2023-12-01T04:15:18.981Z,92.55
2023-12-01T04:17:47.490Z,92.35
2023-12-01T04:20:29.296Z,92.28
2023-12-01T04:23:01.364Z,92.33
2023-12-01T04:25:28.780Z,92.13
2023-12-01T04:27:57.440Z,92.36
2023-12-01T04:30:24.946Z,92.16
2023-12-01T04:32:57.504Z,92.14
2023-12-01T04:35:30.522Z,92.40
2023-12-01T04:37:58.036Z,92.84
2023-12-01T04:40:25.630Z,92.64
2023-12-01T04:42:52.960Z,92.87
2023-12-01T04:45:25.978Z,92.93
2023-12-01T04:47:53.670Z,92.62
2023-12-01T04:50:22.328Z,92.24
2023-12-01T04:52:50.036Z,92.37
2023-12-01T04:55:18.870Z,91.92
2023-12-01T04:57:46.544Z,91.96
2023-12-01T05:00:21.946Z,92.06
2023-12-01T05:02:56.399Z,91.99
2023-12-01T05:05:26.111Z,92.01
2023-12-01T05:07:57.271Z,92.29
2023-12-01T05:10:31.087Z,92.24
2023-12-01T05:12:59.221Z,92.02
2023-12-01T05:15:27.373Z,92.03
2023-12-01T05:18:05.578Z,91.93
2023-12-01T05:20:33.214Z,91.86
2023-12-01T05:23:01.651Z,91.93
2023-12-01T05:25:33.282Z,92.18
2023-12-01T05:28:01.108Z,92.45
2023-12-01T05:30:29.206Z,91.89
2023-12-01T05:32:57.109Z,92.10
2023-12-01T05:35:23.926Z,92.13
2023-12-01T05:37:51.656Z,91.78
2023-12-01T05:40:21.827Z,91.82
2023-12-01T05:42:49.679Z,90.96
2023-12-01T05:45:17.038Z,91.24
2023-12-01T05:47:45.545Z,91.66
2023-12-01T05:50:16.010Z,91.78
2023-12-01T05:52:43.875Z,91.71
2023-12-01T05:55:20.504Z,91.73
2023-12-01T05:57:50.266Z,91.87
2023-12-01T06:00:18.877Z,91.65
2023-12-01T06:02:46.197Z,91.63
2023-12-01T06:05:17.008Z,91.15
2023-12-01T06:07:45.534Z,91.39
2023-12-01T06:10:13.080Z,91.36
2023-12-01T06:12:40.523Z,91.12
2023-12-01T06:15:10.665Z,91.34
2023-12-01T06:17:42.860Z,91.25
2023-12-01T06:20:18.122Z,91.18
2023-12-01T06:22:48.843Z,90.67
2023-12-01T06:25:20.534Z,90.66
2023-12-01T06:27:47.861Z,90.28
2023-12-01T06:30:15.753Z,90.48
2023-12-01T06:32:43.311Z,89.70
2023-12-01T06:35:11.884Z,89.82
2023-12-01T06:37:42.971Z,90.35
2023-12-01T06:40:13.610Z,90.51
2023-12-01T06:42:41.392Z,90.57
2023-12-01T06:45:11.460Z,90.58
2023-12-01T06:47:39.493Z,90.59
2023-12-01T06:50:07.153Z,90.54
2023-12-01T06:52:35.317Z,90.15
2023-12-01T06:55:02.154Z,90.04
2023-12-01T06:57:28.653Z,89.88
2023-12-01T06:59:55.208Z,89.65
2023-12-01T07:02:21.925Z,89.65
2023-12-01T07:04:48.459Z,89.78
2023-12-01T07:07:15.087Z,89.77
2023-12-01T07:09:53.741Z,89.70
2023-12-01T07:12:25.364Z,89.99
2023-12-01T07:14:52.012Z,90.00
2023-12-01T07:17:18.689Z,90.02
2023-12-01T07:19:46.413Z,90.25
2023-12-01T07:22:13.002Z,90.01
2023-12-01T07:24:39.800Z,90.04
2023-12-01T07:27:06.283Z,89.81
2023-12-01T07:29:32.793Z,89.88
2023-12-01T07:32:00.894Z,90.00
2023-12-01T07:34:27.585Z,90.10
2023-12-01T07:36:54.197Z,89.90
2023-12-01T07:39:24.053Z,89.78
2023-12-01T07:41:51.245Z,89.80
2023-12-01T07:44:18.562Z,89.44
2023-12-01T07:46:47.030Z,89.35
2023-12-01T07:49:13.641Z,89.34
2023-12-01T07:51:40.377Z,89.20
2023-12-01T07:54:07.067Z,89.45
2023-12-01T07:56:33.608Z,89.56
2023-12-01T07:59:00.224Z,89.99
2023-12-01T08:01:26.881Z,89.56
2023-12-01T08:03:53.555Z,89.68
2023-12-01T08:06:20.214Z,90.01
2023-12-01T08:08:46.774Z,89.97
2023-12-01T08:11:13.329Z,89.46
2023-12-01T08:13:39.890Z,89.92
2023-12-01T08:16:07.150Z,89.96
2023-12-01T08:18:33.916Z,89.93
2023-12-01T08:21:00.703Z,89.36
2023-12-01T08:23:27.332Z,89.24
2023-12-01T08:25:54.136Z,89.14
2023-12-01T08:28:20.607Z,89.30
2023-12-01T08:30:49.160Z,89.26
2023-12-01T08:33:16.384Z,88.79
2023-12-01T08:35:43.264Z,88.93
2023-12-01T08:38:11.282Z,88.04
2023-12-01T08:40:43.315Z,88.07
2023-12-01T08:43:10.978Z,88.18
2023-12-01T08:45:38.155Z,88.83
2023-12-01T08:48:05.892Z,88.78
2023-12-01T08:50:32.431Z,88.57
2023-12-01T08:52:59.096Z,88.64
2023-12-01T08:55:25.802Z,88.31
2023-12-01T08:57:52.374Z,87.93
2023-12-01T09:00:22.693Z,88.36
2023-12-01T09:02:51.246Z,88.61
2023-12-01T09:05:18.844Z,88.71
2023-12-01T09:07:48.207Z,87.70
2023-12-01T09:10:20.926Z,87.08
2023-12-01T09:12:47.612Z,87.10
2023-12-01T09:15:14.783Z,87.36
2023-12-01T09:17:41.359Z,86.91
2023-12-01T09:20:10.216Z,87.19
2023-12-01T09:22:40.595Z,86.59
2023-12-01T09:25:08.322Z,87.06
2023-12-01T09:27:38.748Z,87.18
2023-12-01T09:30:12.287Z,87.31
2023-12-01T09:32:39.116Z,87.31
2023-12-01T09:35:06.558Z,86.66
2023-12-01T09:37:33.778Z,85.66
2023-12-01T09:40:01.889Z,85.38
2023-12-01T09:42:29.518Z,85.51
2023-12-01T09:44:58.742Z,86.37
2023-12-01T09:47:26.357Z,86.30
2023-12-01T09:49:53.344Z,86.42
2023-12-01T09:52:20.109Z,86.48
2023-12-01T09:55:06.898Z,86.69
2023-12-01T09:57:33.686Z,86.33
2023-12-01T10:00:00.821Z,85.33
2023-12-01T10:02:29.681Z,85.85
2023-12-01T10:05:02.206Z,85.69
2023-12-01T10:07:29.007Z,85.82
2023-12-01T10:09:55.773Z,85.90
2023-12-01T10:12:22.300Z,85.94
2023-12-01T10:14:48.994Z,84.94
2023-12-01T10:17:15.706Z,85.37
2023-12-01T10:19:49.383Z,84.37
2023-12-01T10:22:20.856Z,85.02
2023-12-01T10:24:58.182Z,85.06
2023-12-01T10:27:25.222Z,85.43
2023-12-01T10:29:51.915Z,85.49
2023-12-01T10:32:21.855Z,85.46
2023-12-01T10:34:50.176Z,85.27
2023-12-01T10:37:27.563Z,84.69
2023-12-01T10:39:58.074Z,84.67
2023-12-01T10:42:25.829Z,84.88
2023-12-01T10:44:53.812Z,84.94
2023-12-01T10:47:21.206Z,85.33
2023-12-01T10:49:49.625Z,85.36
2023-12-01T10:52:16.292Z,85.72
2023-12-01T10:54:43.525Z,85.61
2023-12-01T10:57:27.569Z,85.14
2023-12-01T10:59:56.732Z,85.07
2023-12-01T11:02:24.776Z,85.29
2023-12-01T11:04:51.585Z,85.33
2023-12-01T11:07:35.296Z,84.88
2023-12-01T11:10:08.337Z,85.03
2023-12-01T11:12:54.496Z,85.38
2023-12-01T11:15:24.969Z,85.04
2023-12-01T11:17:55.611Z,85.27
2023-12-01T11:20:42.476Z,84.40
2023-12-01T11:23:09.401Z,84.69
2023-12-01T11:25:45.005Z,84.03
2023-12-01T11:28:23.855Z,84.52
2023-12-01T11:31:09.236Z,84.53
2023-12-01T11:33:50.142Z,85.06
2023-12-01T11:36:24.882Z,84.85
2023-12-01T11:39:16.342Z,85.21
2023-12-01T11:41:43.043Z,85.03
2023-12-01T11:44:15.903Z,84.31
2023-12-01T11:46:42.825Z,84.39
2023-12-01T11:49:10.665Z,84.44
2023-12-01T11:51:37.619Z,83.45
2023-12-01T11:54:05.707Z,83.25
2023-12-01T11:56:35.323Z,83.67
2023-12-01T11:59:03.027Z,82.83
2023-12-01T12:01:31.317Z,83.10
2023-12-01T12:03:58.964Z,82.54
2023-12-01T12:06:26.799Z,83.08
2023-12-01T12:08:53.749Z,83.37
2023-12-01T12:11:21.061Z,83.21
2023-12-01T12:13:55.246Z,83.44
2023-12-01T12:16:23.466Z,82.02
2023-12-01T12:18:50.791Z,82.35
2023-12-01T12:21:17.698Z,81.98
2023-12-01T12:23:45.357Z,81.04
2023-12-01T12:26:19.892Z,82.02
2023-12-01T12:29:01.407Z,81.40
2023-12-01T12:31:31.034Z,82.24
2023-12-01T12:33:59.754Z,81.90
2023-12-01T12:36:28.232Z,81.91
2023-12-01T12:38:56.389Z,82.15
2023-12-01T12:41:30.913Z,81.55
2023-12-01T12:44:02.155Z,81.23
2023-12-01T12:46:30.235Z,81.66
2023-12-01T12:48:59.041Z,81.62
2023-12-01T12:51:27.537Z,81.91
2023-12-01T12:53:55.194Z,81.63
2023-12-01T12:56:22.976Z,81.38
2023-12-01T12:59:00.340Z,80.82
2023-12-01T13:01:27.895Z,81.17
2023-12-01T13:03:55.411Z,81.07
2023-12-01T13:06:22.347Z,81.43
2023-12-01T13:08:49.394Z,80.63
2023-12-01T13:11:16.739Z,80.71
2023-12-01T13:13:43.740Z,80.81
2023-12-01T13:16:10.825Z,79.49
2023-12-01T13:18:41.707Z,80.49
2023-12-01T13:21:10.148Z,79.58
2023-12-01T13:23:37.595Z,79.65
2023-12-01T13:26:04.924Z,79.66
2023-12-01T13:28:32.069Z,79.82
2023-12-01T13:30:58.748Z,80.01
2023-12-01T13:33:26.335Z,80.75
2023-12-01T13:35:53.337Z,80.67
2023-12-01T13:38:19.883Z,80.78
2023-12-01T13:40:46.554Z,79.97
2023-12-01T13:43:13.540Z,79.74
2023-12-01T13:45:40.238Z,80.58
2023-12-01T13:48:07.171Z,80.62
2023-12-01T13:50:33.839Z,80.67
2023-12-01T13:53:00.459Z,80.93
2023-12-01T13:55:27.299Z,80.72
2023-12-01T13:57:53.996Z,80.55
2023-12-01T14:00:21.081Z,80.73
2023-12-01T14:02:49.193Z,79.56
2023-12-01T14:05:18.080Z,79.64
2023-12-01T14:07:45.568Z,80.15
2023-12-01T14:10:12.732Z,80.63
2023-12-01T14:12:41.411Z,79.85
2023-12-01T14:15:08.467Z,80.25
2023-12-01T14:17:35.875Z,79.99
2023-12-01T14:20:04.485Z,80.48
2023-12-01T14:22:31.037Z,80.47
2023-12-01T14:24:57.697Z,80.45
2023-12-01T14:27:24.202Z,80.42
2023-12-01T14:29:51.120Z,80.79
2023-12-01T14:32:21.483Z,80.44
2023-12-01T14:34:51.229Z,80.60
2023-12-01T14:37:19.172Z,80.50
2023-12-01T14:39:46.632Z,80.64
2023-12-01T14:42:13.182Z,80.54
2023-12-01T14:44:40.988Z,79.93
2023-12-01T14:47:08.434Z,80.29
2023-12-01T14:49:35.438Z,80.45
2023-12-01T14:52:01.909Z,80.77
2023-12-01T14:54:28.529Z,80.76
2023-12-01T14:56:55.015Z,80.72
2023-12-01T14:59:21.635Z,80.60
2023-12-01T15:01:52.055Z,80.46
2023-12-01T15:04:18.757Z,80.24
2023-12-01T15:06:45.388Z,79.80
2023-12-01T15:09:15.198Z,79.51
2023-12-01T15:11:46.136Z,80.32
2023-12-01T15:14:13.159Z,80.08
2023-12-01T15:16:40.601Z,80.20
2023-12-01T15:19:08.529Z,79.72
2023-12-01T15:21:35.257Z,79.92
2023-12-01T15:24:02.136Z,79.71
2023-12-01T15:26:28.713Z,79.89
2023-12-01T15:28:55.653Z,79.74
2023-12-01T15:31:22.212Z,79.12
2023-12-01T15:33:49.710Z,79.82
2023-12-01T15:36:16.349Z,79.70
2023-12-01T15:38:42.912Z,80.21
2023-12-01T15:41:09.559Z,80.72
2023-12-01T15:43:37.249Z,80.84
2023-12-01T15:46:03.883Z,79.95
2023-12-01T15:48:30.510Z,79.50
2023-12-01T15:50:57.253Z,79.89
2023-12-01T15:53:24.251Z,79.92
2023-12-01T15:55:51.325Z,79.89
2023-12-01T15:58:17.777Z,80.34
2023-12-01T16:00:46.393Z,80.44
2023-12-01T16:03:15.380Z,80.54
2023-12-01T16:05:42.300Z,80.67
2023-12-01T16:08:09.108Z,80.27
2023-12-01T16:10:35.818Z,80.42
2023-12-01T16:13:02.276Z,80.29
2023-12-01T16:15:28.864Z,80.30
2023-12-01T16:17:55.476Z,80.35
2023-12-01T16:20:22.546Z,80.41
2023-12-01T16:22:49.156Z,80.48
2023-12-01T16:25:15.717Z,80.40
2023-12-01T16:27:42.275Z,79.91
2023-12-01T16:30:09.145Z,80.18
2023-12-01T16:32:39.787Z,80.50
2023-12-01T16:35:12.310Z,79.84
2023-12-01T16:37:38.987Z,78.46
2023-12-01T16:40:09.346Z,78.77
2023-12-01T16:42:36.835Z,79.22
2023-12-01T16:45:03.595Z,79.54
2023-12-01T16:47:30.691Z,79.06
2023-12-01T16:49:58.301Z,79.52
2023-12-01T16:52:25.211Z,79.58
2023-12-01T16:54:51.885Z,79.59
2023-12-01T16:57:18.832Z,79.56
2023-12-01T16:59:47.099Z,79.77
2023-12-01T17:02:13.625Z,79.13
2023-12-01T17:04:40.104Z,79.05
2023-12-01T17:07:09.827Z,79.42
2023-12-01T17:09:37.158Z,78.95
2023-12-01T17:12:04.050Z,78.77
2023-12-01T17:14:37.177Z,79.19
2023-12-01T17:17:04.853Z,78.94
2023-12-01T17:19:31.991Z,79.04
2023-12-01T17:21:58.926Z,79.08
2023-12-01T17:24:25.767Z,77.80
2023-12-01T17:26:52.653Z,78.69
2023-12-01T17:29:19.816Z,78.90
2023-12-01T17:31:48.190Z,79.22
2023-12-01T17:34:14.935Z,79.01
2023-12-01T17:36:44.693Z,78.38
2023-12-01T17:39:11.236Z,78.46
2023-12-01T17:41:37.758Z,78.33
2023-12-01T17:44:04.412Z,78.11
2023-12-01T17:46:30.967Z,78.61
2023-12-01T17:48:57.681Z,77.98
2023-12-01T17:51:24.412Z,77.91
2023-12-01T17:53:51.114Z,77.67
2023-12-01T17:56:20.372Z,78.24
2023-12-01T17:58:46.805Z,78.23
2023-12-01T18:01:13.292Z,78.31
2023-12-01T18:03:40.448Z,77.51
2023-12-01T18:06:07.406Z,78.20
2023-12-01T18:08:36.955Z,77.79
2023-12-01T18:11:03.465Z,78.21
2023-12-01T18:13:29.926Z,78.57
2023-12-01T18:15:56.738Z,78.18
2023-12-01T18:18:23.427Z,78.42
2023-12-01T18:20:50.324Z,77.86
2023-12-01T18:23:16.972Z,78.13
2023-12-01T18:25:43.542Z,77.49
2023-12-01T18:28:10.126Z,77.81
2023-12-01T18:30:36.610Z,77.90
2023-12-01T18:33:03.435Z,77.68
2023-12-01T18:35:30.123Z,77.09
2023-12-01T18:37:56.702Z,77.39
2023-12-01T18:40:23.305Z,78.09
2023-12-01T18:42:49.916Z,77.83
2023-12-01T18:45:16.521Z,77.93
2023-12-01T18:47:43.004Z,78.03
2023-12-01T18:50:09.741Z,77.31
2023-12-01T18:52:36.330Z,77.52
2023-12-01T18:55:03.798Z,77.47
2023-12-01T18:57:30.441Z,77.96
2023-12-01T18:59:57.112Z,77.31
2023-12-01T19:02:23.719Z,77.74
2023-12-01T19:04:50.251Z,77.74
2023-12-01T19:07:16.741Z,77.67
2023-12-01T19:09:43.463Z,77.90
2023-12-01T19:12:10.044Z,76.96
2023-12-01T19:14:37.141Z,77.78
2023-12-01T19:17:03.906Z,76.95
2023-12-01T19:19:30.423Z,76.96
2023-12-01T19:21:57.046Z,77.41
2023-12-01T19:24:23.574Z,77.34
2023-12-01T19:26:50.161Z,77.31
2023-12-01T19:29:17.536Z,76.91
2023-12-01T19:31:44.084Z,76.81
2023-12-01T19:34:10.707Z,76.98
2023-12-01T19:36:40.018Z,77.30
2023-12-01T19:39:06.732Z,77.03
2023-12-01T19:41:33.179Z,76.97
2023-12-01T19:44:02.625Z,77.20
2023-12-01T19:46:29.138Z,77.67
2023-12-01T19:48:56.986Z,77.08
2023-12-01T19:51:23.624Z,77.70
2023-12-01T19:53:50.248Z,77.85
2023-12-01T19:56:16.741Z,78.01
2023-12-01T19:58:43.698Z,77.79
2023-12-01T20:01:10.240Z,77.94
2023-12-01T20:03:37.661Z,78.22
2023-12-01T20:06:04.435Z,77.18
2023-12-01T20:08:31.032Z,77.41
2023-12-01T20:10:58.068Z,77.50
2023-12-01T20:13:24.700Z,77.60
2023-12-01T20:15:51.660Z,77.86
2023-12-01T20:18:19.270Z,77.83
2023-12-01T20:20:46.045Z,77.43
2023-12-01T20:23:13.047Z,77.46
2023-12-01T20:25:39.589Z,77.92
2023-12-01T20:28:06.052Z,77.33
2023-12-01T20:30:32.582Z,77.21
2023-12-01T20:32:59.473Z,77.69
2023-12-01T20:35:26.243Z,77.82
2023-12-01T20:37:54.128Z,78.14
2023-12-01T20:40:21.661Z,78.19
2023-12-01T20:42:48.426Z,78.43
2023-12-01T20:45:14.955Z,77.38
2023-12-01T20:47:41.633Z,77.22
2023-12-01T20:50:09.191Z,77.50
2023-12-01T20:52:35.877Z,77.53
2023-12-01T20:55:02.366Z,77.47
2023-12-01T20:57:28.894Z,77.01
2023-12-01T20:59:56.829Z,77.04
2023-12-01T21:02:23.352Z,76.95
2023-12-01T21:04:49.853Z,76.46
2023-12-01T21:07:16.520Z,76.85
2023-12-01T21:09:42.969Z,77.51
2023-12-01T21:12:09.553Z,77.77
2023-12-01T21:14:36.071Z,77.11
2023-12-01T21:17:02.611Z,76.78
2023-12-01T21:19:29.239Z,75.97
2023-12-01T21:21:55.889Z,76.69
2023-12-01T21:24:22.493Z,76.96
2023-12-01T21:26:50.318Z,76.54
2023-12-01T21:29:17.051Z,76.42
2023-12-01T21:31:43.553Z,77.09
2023-12-01T21:34:10.370Z,77.08
2023-12-01T21:36:36.908Z,77.12
2023-12-01T21:39:03.616Z,76.87
2023-12-01T21:41:30.133Z,76.89
2023-12-01T21:43:56.757Z,76.17
2023-12-01T21:46:23.277Z,76.88
2023-12-01T21:48:49.871Z,76.94
2023-12-01T21:51:16.637Z,77.07
2023-12-01T21:53:43.119Z,77.38
2023-12-01T21:56:09.862Z,77.56
2023-12-01T21:58:36.394Z,77.40
2023-12-01T22:01:02.876Z,77.68
2023-12-01T22:03:29.493Z,77.76
2023-12-01T22:05:56.905Z,77.89
2023-12-01T22:08:24.251Z,78.34
2023-12-01T22:10:50.873Z,77.98
2023-12-01T22:13:17.328Z,78.44
2023-12-01T22:15:43.782Z,78.75
2023-12-01T22:18:11.036Z,78.94
2023-12-01T22:20:37.700Z,79.35
2023-12-01T22:23:04.189Z,79.49
2023-12-01T22:25:30.641Z,79.17
2023-12-01T22:27:57.245Z,79.53
2023-12-01T22:30:23.822Z,79.43
2023-12-01T22:32:50.587Z,79.71
2023-12-01T22:35:17.059Z,79.73
2023-12-01T22:37:43.772Z,79.85
2023-12-01T22:40:10.892Z,79.66
2023-12-01T22:42:37.350Z,79.60
2023-12-01T22:45:05.244Z,79.85
2023-12-01T22:47:31.971Z,79.70
2023-12-01T22:49:58.510Z,79.84
2023-12-01T22:52:25.083Z,79.70
2023-12-01T22:55:17.089Z,79.56
2023-12-01T22:57:43.730Z,80.15
2023-12-01T23:00:27.045Z,80.30
2023-12-01T23:02:59.629Z,80.14
2023-12-01T23:05:26.936Z,80.74
2023-12-01T23:07:55.192Z,80.46
2023-12-01T23:10:21.770Z,80.92
2023-12-01T23:12:48.841Z,80.97
2023-12-01T23:15:15.776Z,81.17
2023-12-01T23:17:42.661Z,81.14
2023-12-01T23:20:10.654Z,81.25
2023-12-01T23:22:37.520Z,81.36
2023-12-01T23:25:06.400Z,81.60
2023-12-01T23:27:35.944Z,81.41
2023-12-01T23:30:03.000Z,81.38
2023-12-01T23:32:29.805Z,81.61
2023-12-01T23:34:56.423Z,81.56
2023-12-01T23:37:23.170Z,81.44
2023-12-01T23:39:50.509Z,81.59
2023-12-01T23:42:17.419Z,81.43
2023-12-01T23:44:44.164Z,81.42
2023-12-01T23:47:10.828Z,81.93
2023-12-01T23:49:37.610Z,82.14
2023-12-01T23:52:04.516Z,81.97
2023-12-01T23:54:31.393Z,81.90
2023-12-01T23:56:58.098Z,82.12
2023-12-01T23:59:24.789Z,82.25
